createdAt,value
2018-04-08T00:00:47.137Z,983.59
2018-04-08T00:01:47.364Z,983.60
2018-04-08T00:02:47.568Z,983.59
2018-04-08T00:03:47.785Z,983.59
2018-04-08T00:04:49.716Z,983.56
2018-04-08T00:05:50.715Z,983.59
2018-04-08T00:06:48.312Z,983.53
2018-04-08T00:07:48.525Z,983.57
2018-04-08T00:08:48.742Z,983.53
2018-04-08T00:09:49.980Z,983.53
2018-04-08T00:10:50.731Z,983.52
2018-04-08T00:11:49.363Z,983.50
2018-04-08T00:12:52.208Z,983.57
2018-04-08T00:13:51.224Z,983.55
2018-04-08T00:14:49.816Z,983.52
2018-04-08T00:15:50.037Z,983.53
2018-04-08T00:16:50.249Z,983.51
2018-04-08T00:17:50.459Z,983.53
2018-04-08T00:18:52.222Z,983.49
2018-04-08T00:19:54.713Z,983.49
2018-04-08T00:20:53.754Z,983.46
2018-04-08T00:21:57.087Z,983.46
2018-04-08T00:22:53.214Z,983.44
2018-04-08T00:23:52.439Z,983.48
2018-04-08T00:24:52.679Z,983.46
2018-04-08T00:25:59.712Z,983.45
2018-04-08T00:26:52.918Z,983.47
2018-04-08T00:27:52.126Z,983.43
2018-04-08T00:28:54.214Z,983.44
2018-04-08T00:29:54.212Z,983.42
2018-04-08T00:30:56.237Z,983.43
2018-04-08T00:31:52.881Z,983.42
2018-04-08T00:32:53.028Z,983.38
2018-04-08T00:33:53.239Z,983.40
2018-04-08T00:34:55.250Z,983.37
2018-04-08T00:35:53.669Z,983.35
2018-04-08T00:36:53.880Z,983.31
2018-04-08T00:37:55.709Z,983.34
2018-04-08T00:38:54.290Z,983.32
2018-04-08T00:39:54.555Z,983.31
2018-04-08T00:40:56.210Z,983.33
2018-04-08T00:41:54.917Z,983.31
2018-04-08T00:42:56.753Z,983.32
2018-04-08T00:43:59.215Z,983.32
2018-04-08T00:44:55.445Z,983.30
2018-04-08T00:45:57.214Z,983.31
2018-04-08T00:46:55.803Z,983.28
2018-04-08T00:47:57.712Z,983.31
2018-04-08T00:48:56.225Z,983.28
2018-04-08T00:49:56.367Z,983.28
2018-04-08T00:50:59.214Z,983.30
2018-04-08T00:52:03.216Z,983.28
2018-04-08T00:52:57.814Z,983.35
2018-04-08T00:53:58.718Z,983.30
2018-04-08T00:54:58.190Z,983.27
2018-04-08T00:55:57.401Z,983.27
2018-04-08T00:56:59.217Z,983.28
2018-04-08T00:57:57.798Z,983.26
2018-04-08T00:59:13.724Z,983.23
2018-04-08T00:59:58.171Z,983.24
2018-04-08T01:00:58.383Z,983.22
2018-04-08T01:02:00.234Z,983.26
2018-04-08T01:02:58.849Z,983.24
2018-04-08T01:03:58.943Z,983.28
2018-04-08T01:04:59.156Z,983.24
2018-04-08T01:05:59.370Z,983.25
2018-04-08T01:06:59.596Z,983.22
2018-04-08T01:07:59.866Z,983.24
2018-04-08T01:08:59.956Z,983.23
2018-04-08T01:10:11.751Z,983.23
2018-04-08T01:11:02.217Z,983.24
2018-04-08T01:12:00.559Z,983.26
2018-04-08T01:13:00.810Z,983.28
2018-04-08T01:14:00.999Z,983.29
2018-04-08T01:15:02.714Z,983.24
2018-04-08T01:16:04.213Z,983.26
2018-04-08T01:17:03.209Z,983.30
2018-04-08T01:18:03.207Z,983.26
2018-04-08T01:19:03.715Z,983.27
2018-04-08T01:20:03.714Z,983.27
2018-04-08T01:21:03.710Z,983.24
2018-04-08T01:22:02.161Z,983.24
2018-04-08T01:23:02.378Z,983.29
2018-04-08T01:24:04.231Z,983.24
2018-04-08T01:25:02.821Z,983.26
2018-04-08T01:26:05.727Z,983.19
2018-04-08T01:27:03.199Z,983.21
2018-04-08T01:28:05.215Z,983.21
2018-04-08T01:29:03.599Z,983.22
2018-04-08T01:30:03.783Z,983.21
2018-04-08T01:31:04.047Z,983.17
2018-04-08T01:32:05.207Z,983.13
2018-04-08T01:33:06.212Z,983.16
2018-04-08T01:34:04.547Z,983.18
2018-04-08T01:35:04.760Z,983.17
2018-04-08T01:36:07.727Z,983.12
2018-04-08T01:37:06.733Z,983.14
2018-04-08T01:38:07.231Z,983.15
2018-04-08T01:39:05.441Z,983.14
2018-04-08T01:40:05.651Z,983.15
2018-04-08T01:41:05.863Z,983.13
2018-04-08T01:42:07.732Z,983.12
2018-04-08T01:43:06.204Z,983.14
2018-04-08T01:44:09.218Z,983.13
2018-04-08T01:45:09.233Z,983.12
2018-04-08T01:46:06.751Z,983.11
2018-04-08T01:47:06.894Z,983.11
2018-04-08T01:48:07.026Z,983.08
2018-04-08T01:49:07.132Z,983.09
2018-04-08T01:50:08.348Z,983.08
2018-04-08T01:51:09.250Z,983.09
2018-04-08T01:52:07.711Z,983.12
2018-04-08T01:53:07.802Z,983.09
2018-04-08T01:54:11.719Z,983.09
2018-04-08T01:55:08.170Z,983.09
2018-04-08T01:56:08.406Z,983.09
2018-04-08T01:57:08.617Z,983.04
2018-04-08T01:58:09.306Z,983.07
2018-04-08T01:59:10.709Z,983.04
2018-04-08T02:00:09.133Z,983.07
2018-04-08T02:01:11.217Z,983.06
2018-04-08T02:02:09.427Z,983.06
2018-04-08T02:03:11.233Z,983.03
2018-04-08T02:04:09.817Z,983.04
2018-04-08T02:05:10.039Z,983.09
2018-04-08T02:06:12.209Z,983.05
2018-04-08T02:07:12.252Z,983.05
2018-04-08T02:08:13.245Z,983.05
2018-04-08T02:09:10.803Z,983.00
2018-04-08T02:10:11.007Z,982.97
2018-04-08T02:11:11.218Z,982.97
2018-04-08T02:12:11.465Z,982.96
2018-04-08T02:13:13.209Z,982.96
2018-04-08T02:14:11.693Z,982.96
2018-04-08T02:15:11.800Z,982.99
2018-04-08T02:16:19.740Z,982.98
2018-04-08T02:17:12.215Z,982.98
2018-04-08T02:18:12.432Z,982.97
2018-04-08T02:19:12.704Z,983.00
2018-04-08T02:20:13.810Z,982.98
2018-04-08T02:21:14.737Z,983.03
2018-04-08T02:22:16.765Z,982.98
2018-04-08T02:23:15.223Z,983.02
2018-04-08T02:24:15.221Z,982.98
2018-04-08T02:25:13.679Z,982.97
2018-04-08T02:26:16.729Z,982.99
2018-04-08T02:27:19.712Z,982.98
2018-04-08T02:28:14.287Z,982.96
2018-04-08T02:29:21.220Z,982.99
2018-04-08T02:30:14.678Z,982.97
2018-04-08T02:31:30.711Z,982.95
2018-04-08T02:32:15.052Z,982.97
2018-04-08T02:33:17.212Z,982.97
2018-04-08T02:34:17.225Z,982.98
2018-04-08T02:35:19.227Z,982.98
2018-04-08T02:36:15.686Z,982.97
2018-04-08T02:37:15.886Z,982.99
2018-04-08T02:38:17.751Z,982.97
2018-04-08T02:39:19.712Z,982.97
2018-04-08T02:40:16.421Z,982.94
2018-04-08T02:41:17.676Z,983.00
2018-04-08T02:42:18.732Z,983.03
2018-04-08T02:43:16.959Z,983.00
2018-04-08T02:44:22.711Z,983.03
2018-04-08T02:45:17.325Z,983.01
2018-04-08T02:46:17.433Z,983.02
2018-04-08T02:47:19.216Z,983.00
2018-04-08T02:48:17.805Z,983.04
2018-04-08T02:49:19.035Z,983.02
2018-04-08T02:50:18.273Z,983.04
2018-04-08T02:51:18.502Z,983.01
2018-04-08T02:52:22.255Z,983.03
2018-04-08T02:53:26.211Z,983.01
2018-04-08T02:54:18.869Z,983.00
2018-04-08T02:55:18.950Z,982.99
2018-04-08T02:56:20.663Z,983.00
2018-04-08T02:57:21.215Z,983.01
2018-04-08T02:58:21.231Z,982.99
2018-04-08T02:59:26.215Z,983.00
2018-04-08T03:00:21.215Z,982.99
2018-04-08T03:01:22.716Z,983.01
2018-04-08T03:02:23.719Z,983.06
2018-04-08T03:03:20.207Z,983.04
2018-04-08T03:04:22.218Z,983.00
2018-04-08T03:05:20.457Z,983.04
2018-04-08T03:06:22.218Z,983.04
2018-04-08T03:07:22.259Z,982.98
2018-04-08T03:08:21.841Z,983.05
2018-04-08T03:09:22.759Z,983.08
2018-04-08T03:10:21.116Z,983.09
2018-04-08T03:11:21.325Z,983.04
2018-04-08T03:12:24.034Z,983.00
2018-04-08T03:13:23.717Z,983.02
2018-04-08T03:14:21.940Z,983.01
2018-04-08T03:15:28.715Z,982.99
2018-04-08T03:16:22.384Z,983.02
2018-04-08T03:17:22.476Z,983.03
2018-04-08T03:18:22.726Z,983.02
2018-04-08T03:19:28.707Z,982.99
2018-04-08T03:20:23.729Z,982.99
2018-04-08T03:21:23.214Z,982.99
2018-04-08T03:22:23.463Z,983.02
2018-04-08T03:23:25.678Z,982.98
2018-04-08T03:24:23.780Z,982.98
2018-04-08T03:25:25.708Z,982.99
2018-04-08T03:26:25.189Z,982.99
2018-04-08T03:27:26.217Z,982.96
2018-04-08T03:28:24.563Z,982.95
2018-04-08T03:29:28.713Z,982.94
2018-04-08T03:30:25.919Z,982.92
2018-04-08T03:31:31.714Z,982.91
2018-04-08T03:32:27.219Z,982.90
2018-04-08T03:33:25.414Z,982.89
2018-04-08T03:34:27.242Z,982.90
2018-04-08T03:35:28.671Z,982.89
2018-04-08T03:36:27.051Z,982.89
2018-04-08T03:37:27.714Z,982.88
2018-04-08T03:38:28.222Z,982.89
2018-04-08T03:39:28.271Z,982.85
2018-04-08T03:40:28.213Z,982.87
2018-04-08T03:41:26.786Z,982.88
2018-04-08T03:42:28.709Z,982.82
2018-04-08T03:43:28.713Z,982.84
2018-04-08T03:44:29.211Z,982.81
2018-04-08T03:45:27.536Z,982.80
2018-04-08T03:46:27.782Z,982.80
2018-04-08T03:47:27.883Z,982.79
2018-04-08T03:48:28.134Z,982.83
2018-04-08T03:49:28.257Z,982.84
2018-04-08T03:50:28.484Z,982.83
2018-04-08T03:51:30.271Z,982.84
2018-04-08T03:52:29.750Z,982.86
2018-04-08T03:53:29.046Z,982.85
2018-04-08T03:54:29.150Z,982.90
2018-04-08T03:55:31.230Z,982.85
2018-04-08T03:56:29.594Z,982.83
2018-04-08T03:57:31.235Z,982.85
2018-04-08T03:58:29.823Z,982.82
2018-04-08T03:59:30.037Z,982.85
2018-04-08T04:00:32.229Z,982.89
2018-04-08T04:01:32.218Z,982.86
2018-04-08T04:02:34.257Z,982.82
2018-04-08T04:03:30.681Z,982.84
2018-04-08T04:04:32.727Z,982.86
2018-04-08T04:05:32.066Z,982.86
2018-04-08T04:06:31.281Z,982.82
2018-04-08T04:07:31.503Z,982.82
2018-04-08T04:08:36.217Z,982.81
2018-04-08T04:09:31.794Z,982.78
2018-04-08T04:10:35.726Z,982.84
2018-04-08T04:11:33.715Z,982.81
2018-04-08T04:12:35.226Z,982.80
2018-04-08T04:13:32.604Z,982.81
2018-04-08T04:14:33.718Z,982.80
2018-04-08T04:15:44.712Z,982.80
2018-04-08T04:16:33.049Z,982.81
2018-04-08T04:17:35.215Z,982.81
2018-04-08T04:18:40.221Z,982.83
2018-04-08T04:19:34.718Z,982.78
2018-04-08T04:20:33.844Z,982.79
2018-04-08T04:21:35.731Z,982.81
2018-04-08T04:22:34.404Z,982.77
2018-04-08T04:23:36.209Z,982.79
2018-04-08T04:24:36.215Z,982.76
2018-04-08T04:25:36.235Z,982.80
2018-04-08T04:26:36.212Z,982.76
2018-04-08T04:27:34.840Z,982.76
2018-04-08T04:28:35.948Z,982.80
2018-04-08T04:29:37.720Z,982.83
2018-04-08T04:30:39.238Z,982.83
2018-04-08T04:31:35.469Z,982.84
2018-04-08T04:32:38.198Z,982.89
2018-04-08T04:33:35.917Z,982.90
2018-04-08T04:34:37.713Z,982.89
2018-04-08T04:35:38.238Z,982.85
2018-04-08T04:36:36.457Z,982.86
2018-04-08T04:37:44.252Z,982.84
2018-04-08T04:38:43.724Z,982.83
2018-04-08T04:39:38.785Z,982.84
2018-04-08T04:40:38.713Z,982.88
2018-04-08T04:41:40.710Z,982.88
2018-04-08T04:42:41.000Z,982.85
2018-04-08T04:43:42.164Z,982.82
2018-04-08T04:44:38.641Z,982.82
2018-04-08T04:45:37.861Z,982.79
2018-04-08T04:46:39.767Z,982.80
2018-04-08T04:47:38.231Z,982.77
2018-04-08T04:48:38.476Z,982.77
2018-04-08T04:49:38.546Z,982.79
2018-04-08T04:50:41.723Z,982.78
2018-04-08T04:51:40.721Z,982.79
2018-04-08T04:52:39.717Z,982.79
2018-04-08T04:53:39.184Z,982.81
2018-04-08T04:54:41.250Z,982.78
2018-04-08T04:55:40.924Z,982.79
2018-04-08T04:56:42.674Z,982.80
2018-04-08T04:57:43.718Z,982.81
2018-04-08T04:58:41.748Z,982.81
2018-04-08T04:59:40.218Z,982.80
2018-04-08T05:00:46.264Z,982.79
2018-04-08T05:01:42.221Z,982.80
2018-04-08T05:02:42.240Z,982.82
2018-04-08T05:03:42.754Z,982.83
2018-04-08T05:04:41.054Z,982.84
2018-04-08T05:05:43.236Z,982.81
2018-04-08T05:06:43.227Z,982.82
2018-04-08T05:07:49.239Z,982.84
2018-04-08T05:08:41.835Z,982.79
2018-04-08T05:09:43.768Z,982.80
2018-04-08T05:10:43.717Z,982.78
2018-04-08T05:11:42.313Z,982.79
2018-04-08T05:12:44.228Z,982.81
2018-04-08T05:13:42.701Z,982.83
2018-04-08T05:14:44.738Z,982.84
2018-04-08T05:15:43.121Z,982.86
2018-04-08T05:16:44.774Z,982.89
2018-04-08T05:17:50.234Z,982.86
2018-04-08T05:18:49.557Z,982.88
2018-04-08T05:19:43.755Z,982.84
2018-04-08T05:20:46.738Z,982.87
2018-04-08T05:21:45.738Z,982.82
2018-04-08T05:22:45.716Z,982.84
2018-04-08T05:23:46.206Z,982.95
2018-04-08T05:24:47.223Z,982.94
2018-04-08T05:25:44.743Z,982.97
2018-04-08T05:26:55.734Z,982.96
2018-04-08T05:27:46.714Z,982.95
2018-04-08T05:28:45.286Z,982.93
2018-04-08T05:29:45.506Z,982.96
2018-04-08T05:30:47.212Z,983.01
2018-04-08T05:31:47.726Z,982.99
2018-04-08T05:32:46.079Z,982.99
2018-04-08T05:33:46.291Z,982.99
2018-04-08T05:34:46.490Z,983.04
2018-04-08T05:35:46.710Z,983.05
2018-04-08T05:36:46.924Z,983.03
2018-04-08T05:37:48.713Z,983.03
2018-04-08T05:38:47.299Z,983.12
2018-04-08T05:39:47.517Z,983.09
2018-04-08T05:40:47.722Z,983.08
2018-04-08T05:41:47.927Z,983.14
2018-04-08T05:42:48.136Z,983.06
2018-04-08T05:43:48.348Z,983.09
2018-04-08T05:44:48.555Z,983.12
2018-04-08T05:45:48.771Z,983.15
2018-04-08T05:46:49.017Z,983.14
2018-04-08T05:47:49.122Z,983.13
2018-04-08T05:48:49.352Z,983.19
2018-04-08T05:49:49.557Z,983.21
2018-04-08T05:50:49.761Z,983.21
2018-04-08T05:51:49.981Z,983.20
2018-04-08T05:52:50.187Z,983.19
2018-04-08T05:53:51.394Z,983.26
2018-04-08T05:54:50.614Z,983.25
2018-04-08T05:55:50.827Z,983.30
2018-04-08T05:56:51.039Z,983.28
2018-04-08T05:57:51.265Z,983.31
2018-04-08T05:58:51.465Z,983.33
2018-04-08T05:59:51.683Z,983.28
2018-04-08T06:00:51.898Z,983.25
2018-04-08T06:01:52.107Z,983.31
2018-04-08T06:02:52.334Z,983.32
2018-04-08T06:03:52.571Z,983.34
2018-04-08T06:04:52.778Z,983.38
2018-04-08T06:05:52.952Z,983.38
2018-04-08T06:06:53.166Z,983.44
2018-04-08T06:07:53.384Z,983.48
2018-04-08T06:08:53.590Z,983.48
2018-04-08T06:09:53.795Z,983.52
2018-04-08T06:10:54.018Z,983.59
2018-04-08T06:11:54.228Z,983.66
2018-04-08T06:12:54.447Z,983.77
2018-04-08T06:13:54.666Z,984.02
2018-04-08T06:14:54.886Z,984.31
2018-04-08T06:15:55.101Z,984.64
2018-04-08T06:16:55.319Z,984.82
2018-04-08T06:17:55.524Z,985.05
2018-04-08T06:18:55.742Z,985.42
2018-04-08T06:19:55.951Z,986.28
2018-04-08T06:20:56.160Z,986.85
2018-04-08T06:21:58.215Z,986.20
2018-04-08T06:22:56.556Z,985.00
2018-04-08T06:23:56.771Z,984.52
2018-04-08T06:24:57.016Z,984.32
2018-04-08T06:25:57.223Z,984.25
2018-04-08T06:26:59.231Z,984.09
2018-04-08T06:27:57.590Z,984.02
2018-04-08T06:28:57.809Z,984.01
2018-04-08T06:29:58.027Z,983.88
2018-04-08T06:30:58.238Z,983.79
2018-04-08T06:31:58.462Z,983.76
2018-04-08T06:33:00.224Z,983.76
2018-04-08T06:33:58.805Z,983.74
2018-04-08T06:34:59.028Z,983.71
2018-04-08T06:35:59.240Z,983.70
2018-04-08T06:36:59.498Z,983.70
2018-04-08T06:37:59.690Z,983.68
2018-04-08T06:39:01.723Z,983.66
2018-04-08T06:40:00.073Z,983.71
2018-04-08T06:41:00.297Z,983.67
2018-04-08T06:42:00.512Z,983.67
2018-04-08T06:43:00.741Z,983.68
2018-04-08T06:44:00.982Z,983.71
2018-04-08T06:45:02.718Z,983.69
2018-04-08T06:46:03.272Z,983.69
2018-04-08T06:47:01.444Z,983.68
2018-04-08T06:48:01.659Z,983.69
2018-04-08T06:49:03.738Z,983.67
2018-04-08T06:50:02.065Z,983.60
2018-04-08T06:51:04.688Z,983.65
2018-04-08T06:52:02.439Z,983.62
2018-04-08T06:53:02.536Z,983.63
2018-04-08T06:54:02.753Z,983.70
2018-04-08T06:55:02.996Z,983.73
2018-04-08T06:56:04.729Z,983.75
2018-04-08T06:57:11.241Z,983.72
2018-04-08T06:58:05.217Z,983.84
2018-04-08T06:59:03.692Z,983.91
2018-04-08T07:00:05.780Z,983.83
2018-04-08T07:01:05.722Z,983.77
2018-04-08T07:02:04.234Z,983.65
2018-04-08T07:03:08.240Z,983.61
2018-04-08T07:04:07.264Z,983.56
2018-04-08T07:05:06.722Z,983.52
2018-04-08T07:06:08.718Z,983.52
2018-04-08T07:07:05.181Z,983.55
2018-04-08T07:08:05.455Z,983.51
2018-04-08T07:09:08.263Z,983.48
2018-04-08T07:10:06.880Z,983.54
2018-04-08T07:11:08.759Z,983.61
2018-04-08T07:12:09.773Z,983.72
2018-04-08T07:13:08.262Z,983.77
2018-04-08T07:14:08.214Z,983.82
2018-04-08T07:15:08.737Z,983.87
2018-04-08T07:16:07.141Z,983.90
2018-04-08T07:17:10.239Z,983.88
2018-04-08T07:18:08.489Z,983.92
2018-04-08T07:19:15.223Z,983.87
2018-04-08T07:20:07.933Z,983.85
2018-04-08T07:21:09.716Z,983.83
2018-04-08T07:22:10.223Z,983.87
2018-04-08T07:23:10.254Z,983.83
2018-04-08T07:24:10.225Z,983.86
2018-04-08T07:25:08.808Z,983.91
2018-04-08T07:26:09.026Z,983.97
2018-04-08T07:27:09.250Z,983.95
2018-04-08T07:28:11.226Z,983.91
2018-04-08T07:29:09.568Z,983.95
2018-04-08T07:30:09.798Z,983.93
2018-04-08T07:31:10.016Z,983.92
2018-04-08T07:32:10.249Z,983.95
2018-04-08T07:33:10.489Z,983.96
2018-04-08T07:34:14.227Z,983.98
2018-04-08T07:35:10.951Z,983.96
2018-04-08T07:36:12.735Z,983.90
2018-04-08T07:37:15.228Z,983.92
2018-04-08T07:38:12.582Z,983.92
2018-04-08T07:39:15.735Z,983.93
2018-04-08T07:40:14.777Z,983.90
2018-04-08T07:41:26.751Z,983.92
2018-04-08T07:42:15.763Z,983.93
2018-04-08T07:43:12.376Z,983.90
2018-04-08T07:44:12.655Z,983.90
2018-04-08T07:45:15.720Z,983.94
2018-04-08T07:46:14.724Z,983.88
2018-04-08T07:47:13.191Z,983.93
2018-04-08T07:48:17.425Z,983.92
2018-04-08T07:49:13.658Z,983.98
2018-04-08T07:50:15.724Z,983.88
2018-04-08T07:51:14.077Z,983.91
2018-04-08T07:52:14.349Z,983.85
2018-04-08T07:53:17.217Z,983.88
2018-04-08T07:54:16.223Z,983.88
2018-04-08T07:55:15.815Z,983.85
2018-04-08T07:56:16.037Z,983.88
2018-04-08T07:57:17.250Z,983.91
2018-04-08T07:58:15.465Z,983.90
2018-04-08T07:59:17.261Z,983.90
2018-04-08T08:00:15.887Z,983.89
2018-04-08T08:01:16.103Z,983.88
2018-04-08T08:02:20.219Z,983.87
2018-04-08T08:03:16.576Z,983.94
2018-04-08T08:04:17.671Z,984.00
2018-04-08T08:05:18.798Z,983.95
2018-04-08T08:06:18.750Z,983.99
2018-04-08T08:07:17.356Z,983.94
2018-04-08T08:08:19.218Z,983.91
2018-04-08T08:09:19.768Z,983.97
2018-04-08T08:10:20.177Z,983.98
2018-04-08T08:11:19.742Z,984.02
2018-04-08T08:12:19.775Z,984.05
2018-04-08T08:13:22.258Z,984.03
2018-04-08T08:14:18.629Z,984.03
2018-04-08T08:15:20.726Z,983.98
2018-04-08T08:16:19.685Z,983.92
2018-04-08T08:17:19.350Z,983.97
2018-04-08T08:18:22.707Z,984.00
2018-04-08T08:19:22.040Z,983.93
2018-04-08T08:20:19.954Z,983.92
2018-04-08T08:21:21.189Z,983.84
2018-04-08T08:22:20.421Z,983.87
2018-04-08T08:23:21.705Z,983.88
2018-04-08T08:24:23.678Z,983.89
2018-04-08T08:25:21.058Z,983.92
2018-04-08T08:26:21.457Z,983.87
2018-04-08T08:27:21.489Z,983.85
2018-04-08T08:28:23.228Z,983.83
2018-04-08T08:29:23.719Z,983.83
2018-04-08T08:30:24.773Z,983.82
2018-04-08T08:31:22.286Z,983.76
2018-04-08T08:32:22.524Z,983.76
2018-04-08T08:33:24.729Z,983.75
2018-04-08T08:34:23.019Z,983.70
2018-04-08T08:35:26.197Z,983.68
2018-04-08T08:37:57.462Z,983.68
2018-04-08T08:38:56.412Z,983.65
2018-04-08T08:39:55.820Z,983.63
2018-04-08T08:40:57.466Z,983.63
2018-04-08T08:41:58.018Z,983.64
2018-04-08T08:42:56.254Z,983.60
2018-04-08T08:43:58.464Z,983.57
2018-04-08T08:45:05.425Z,983.57
2018-04-08T08:45:56.911Z,983.54
2018-04-08T08:46:58.141Z,983.57
2018-04-08T08:47:57.369Z,983.53
2018-04-08T08:49:01.465Z,983.52
2018-04-08T08:50:01.469Z,983.54
2018-04-08T08:50:59.964Z,983.52
2018-04-08T08:51:59.967Z,983.53
2018-04-08T08:53:01.964Z,983.55
2018-04-08T08:54:00.485Z,983.52
2018-04-08T08:55:00.556Z,983.51
2018-04-08T08:56:01.519Z,983.48
2018-04-08T08:57:01.272Z,983.40
2018-04-08T08:57:59.388Z,983.43
2018-04-08T08:59:03.513Z,983.36
2018-04-08T09:00:04.195Z,983.31
2018-04-08T09:01:07.469Z,983.33
2018-04-08T09:02:01.076Z,983.36
2018-04-08T09:03:04.016Z,983.36
2018-04-08T09:04:01.972Z,983.36
2018-04-08T09:05:23.498Z,983.33
2018-04-08T09:06:02.438Z,983.31
2018-04-08T09:07:04.468Z,983.35
2018-04-08T09:08:04.947Z,983.32
2018-04-08T09:09:23.425Z,983.32
2018-04-08T09:10:01.527Z,983.32
2018-04-08T09:11:01.762Z,983.32
2018-04-08T09:12:05.966Z,983.35
2018-04-08T09:13:10.007Z,983.36
2018-04-08T09:14:24.384Z,983.35
2018-04-08T09:15:03.593Z,983.36
2018-04-08T09:16:04.471Z,983.39
2018-04-08T09:17:02.991Z,983.36
2018-04-08T09:18:04.971Z,983.33
2018-04-08T09:19:06.993Z,983.35
2018-04-08T09:20:03.714Z,983.34
2018-04-08T09:21:11.464Z,983.36
2018-04-08T09:22:07.919Z,983.37
2018-04-08T09:23:06.919Z,983.41
2018-04-08T09:24:05.977Z,983.47
2018-04-08T09:25:11.497Z,983.45
2018-04-08T09:26:04.736Z,983.45
2018-04-08T09:27:05.381Z,983.42
2018-04-08T09:28:08.964Z,983.38
2018-04-08T09:29:05.391Z,983.33
2018-04-08T09:30:05.479Z,983.41
2018-04-08T09:31:09.491Z,983.38
2018-04-08T09:32:05.853Z,983.39
2018-04-08T09:33:08.018Z,983.42
2018-04-08T09:34:06.340Z,983.44
2018-04-08T09:35:18.469Z,983.44
2018-04-08T09:36:23.579Z,983.44
2018-04-08T09:37:08.998Z,983.44
2018-04-08T09:38:10.975Z,983.38
2018-04-08T09:39:09.000Z,983.41
2018-04-08T09:40:09.466Z,983.42
2018-04-08T09:41:11.468Z,983.36
2018-04-08T09:42:11.966Z,983.40
2018-04-08T09:43:09.978Z,983.35
2018-04-08T09:44:08.496Z,983.36
2018-04-08T09:45:10.462Z,983.35
2018-04-08T09:46:08.825Z,983.34
2018-04-08T09:47:10.970Z,983.31
2018-04-08T09:48:10.970Z,983.30
2018-04-08T09:49:10.995Z,983.32
2018-04-08T09:50:10.625Z,983.29
2018-04-08T09:51:09.835Z,983.21
2018-04-08T09:52:10.068Z,983.18
2018-04-08T09:53:32.998Z,983.18
2018-04-08T09:54:10.427Z,983.12
2018-04-08T09:55:12.494Z,983.12
2018-04-08T09:56:12.463Z,983.11
2018-04-08T09:57:12.965Z,983.10
2018-04-08T09:58:19.003Z,983.07
2018-04-08T09:59:13.932Z,983.06
2018-04-08T10:00:15.464Z,983.05
2018-04-08T10:01:11.816Z,983.06
2018-04-08T10:02:16.009Z,982.99
2018-04-08T10:03:12.265Z,983.01
2018-04-08T10:04:12.952Z,983.01
2018-04-08T10:05:14.471Z,983.00
2018-04-08T10:06:14.513Z,982.99
2018-04-08T10:07:16.482Z,983.03
2018-04-08T10:08:28.994Z,983.00
2018-04-08T10:09:13.240Z,982.98
2018-04-08T10:10:15.027Z,982.97
2018-04-08T10:11:15.470Z,982.96
2018-04-08T10:12:16.468Z,982.98
2018-04-08T10:13:15.964Z,982.96
2018-04-08T10:14:15.960Z,982.90
2018-04-08T10:15:16.472Z,982.92
2018-04-08T10:16:17.475Z,982.91
2018-04-08T10:17:16.980Z,982.91
2018-04-08T10:18:17.024Z,982.90
2018-04-08T10:19:15.515Z,982.90
2018-04-08T10:20:18.500Z,982.92
2018-04-08T10:21:17.477Z,982.88
2018-04-08T10:22:18.016Z,982.86
2018-04-08T10:23:17.987Z,982.84
2018-04-08T10:24:20.421Z,982.84
2018-04-08T10:25:16.801Z,982.81
2018-04-08T10:26:17.035Z,982.84
2018-04-08T10:27:38.284Z,982.87
2018-04-08T10:28:25.489Z,982.90
2018-04-08T10:29:17.760Z,982.88
2018-04-08T10:30:19.472Z,982.91
2018-04-08T10:31:18.090Z,982.93
2018-04-08T10:32:23.970Z,982.77
2018-04-08T10:33:18.452Z,982.63
2018-04-08T10:34:22.466Z,982.59
2018-04-08T10:35:20.532Z,982.41
2018-04-08T10:36:19.110Z,982.33
2018-04-08T10:37:19.359Z,982.31
2018-04-08T10:38:25.964Z,982.27
2018-04-08T10:39:21.506Z,982.27
2018-04-08T10:40:21.511Z,982.25
2018-04-08T10:41:20.115Z,982.25
2018-04-08T10:42:30.966Z,982.24
2018-04-08T10:43:23.480Z,982.24
2018-04-08T10:44:21.436Z,982.20
2018-04-08T10:45:20.974Z,982.21
2018-04-08T10:46:21.108Z,982.21
2018-04-08T10:47:22.231Z,982.17
2018-04-08T10:48:24.969Z,982.19
2018-04-08T10:49:21.687Z,982.20
2018-04-08T10:50:24.492Z,982.17
2018-04-08T10:51:22.018Z,982.19
2018-04-08T10:52:23.962Z,982.15
2018-04-08T10:53:23.967Z,982.15
2018-04-08T10:54:23.451Z,982.09
2018-04-08T10:55:25.465Z,982.11
2018-04-08T10:56:22.811Z,982.09
2018-04-08T10:57:26.974Z,982.12
2018-04-08T10:58:23.224Z,982.09
2018-04-08T10:59:38.958Z,982.05
2018-04-08T11:00:25.481Z,982.06
2018-04-08T11:01:26.462Z,982.05
2018-04-08T11:02:24.080Z,981.98
2018-04-08T11:03:24.297Z,981.98
2018-04-08T11:04:26.475Z,981.99
2018-04-08T11:05:24.700Z,981.99
2018-04-08T11:06:25.326Z,981.94
2018-04-08T11:07:26.199Z,981.96
2018-04-08T11:08:25.297Z,981.93
2018-04-08T11:09:31.463Z,981.92
2018-04-08T11:10:25.681Z,981.91
2018-04-08T11:11:27.460Z,981.84
2018-04-08T11:12:26.125Z,981.84
2018-04-08T11:13:28.597Z,981.81
2018-04-08T11:14:30.917Z,981.79
2018-04-08T11:15:28.518Z,981.76
2018-04-08T11:16:48.026Z,981.77
2018-04-08T11:17:27.185Z,981.74
2018-04-08T11:18:30.970Z,981.72
2018-04-08T11:19:27.450Z,981.73
2018-04-08T11:20:27.699Z,981.68
2018-04-08T11:21:27.919Z,981.65
2018-04-08T11:22:29.969Z,981.64
2018-04-08T11:23:28.242Z,981.65
2018-04-08T11:24:30.415Z,981.64
2018-04-08T11:25:30.460Z,981.66
2018-04-08T11:26:29.693Z,981.65
2018-04-08T11:27:28.927Z,981.60
2018-04-08T11:28:33.012Z,981.59
2018-04-08T11:29:30.967Z,981.58
2018-04-08T11:30:33.453Z,981.59
2018-04-08T11:31:29.877Z,981.56
2018-04-08T11:32:31.479Z,981.57
2018-04-08T11:33:31.457Z,981.53
2018-04-08T11:34:32.000Z,981.53
2018-04-08T11:35:31.447Z,981.54
2018-04-08T11:36:30.694Z,981.59
2018-04-08T11:37:30.935Z,981.59
2018-04-08T11:38:32.959Z,981.56
2018-04-08T11:39:31.356Z,981.61
2018-04-08T11:40:33.465Z,981.60
2018-04-08T11:41:33.758Z,981.57
2018-04-08T11:42:33.516Z,981.57
2018-04-08T11:43:34.030Z,981.53
2018-04-08T11:44:32.366Z,981.54
2018-04-08T11:45:32.600Z,981.50
2018-04-08T11:46:32.857Z,981.48
2018-04-08T11:47:35.963Z,981.50
2018-04-08T11:48:33.183Z,981.49
2018-04-08T11:49:35.922Z,981.47
2018-04-08T11:50:35.481Z,981.41
2018-04-08T11:51:35.874Z,981.41
2018-04-08T11:52:35.955Z,981.42
2018-04-08T11:53:35.963Z,981.40
2018-04-08T11:54:34.340Z,981.42
2018-04-08T11:55:35.971Z,981.45
2018-04-08T11:56:34.747Z,981.40
2018-04-08T11:57:36.106Z,981.38
2018-04-08T11:58:35.131Z,981.35
2018-04-08T11:59:36.964Z,981.39
2018-04-08T12:00:41.477Z,981.40
2018-04-08T12:01:35.878Z,981.36
2018-04-08T12:02:35.997Z,981.35
2018-04-08T12:03:37.252Z,981.33
2018-04-08T12:04:36.362Z,981.29
2018-04-08T12:05:36.584Z,981.25
2018-04-08T12:06:38.453Z,981.23
2018-04-08T12:07:38.964Z,981.22
2018-04-08T12:08:38.357Z,981.21
2018-04-08T12:09:39.464Z,981.15
2018-04-08T12:10:41.931Z,981.13
2018-04-08T12:11:41.450Z,981.14
2018-04-08T12:12:41.963Z,981.11
2018-04-08T12:13:39.821Z,981.08
2018-04-08T12:14:40.474Z,981.05
2018-04-08T12:15:40.459Z,981.06
2018-04-08T12:16:39.970Z,980.98
2018-04-08T12:17:40.919Z,981.00
2018-04-08T12:18:39.408Z,980.99
2018-04-08T12:19:40.419Z,981.01
2018-04-08T12:20:40.841Z,980.98
2018-04-08T12:21:42.940Z,980.99
2018-04-08T12:22:44.008Z,980.95
2018-04-08T12:23:42.942Z,980.96
2018-04-08T12:24:42.462Z,980.96
2018-04-08T12:25:42.460Z,980.94
2018-04-08T12:26:40.958Z,980.94
2018-04-08T12:27:48.961Z,980.89
2018-04-08T12:28:42.434Z,980.97
2018-04-08T12:29:41.679Z,980.95
2018-04-08T12:30:42.944Z,980.96
2018-04-08T12:31:43.996Z,980.99
2018-04-08T12:32:43.365Z,980.94